ASN logo
ASN Wikibase Occurrence # 222503
Last updated: 17 July 2021
This information is added by users of ASN. Neither ASN nor the Flight Safety Foundation are responsible for the completeness or correctness of this information. If you feel this information is incomplete or incorrect, you can submit corrected information.

Date:02-MAR-2019
Time:19:00 UTC
Type:Silhouette image of generic B763 model; specific model in this crash may look slightly different
Boeing 767-33PER
Owner/operator:Uzbekistan Airways
Registration: UK67008
MSN: 33078
Fatalities:Fatalities: 0 / Occupants: 249
Other fatalities:0
Aircraft damage: None
Location:Saint Petersburg-Pulkovo Airport (LED/ULLI) -   Russia
Phase: Landing
Nature:Passenger - Scheduled
Departure airport:Tashkent-Yuzhny Airport (TAS/UTTT)
Destination airport:Saint Petersburg-Pulkovo Airport (LED/ULLI)
Narrative:
Uzbekistan Airways flight HY631, a Boeing 767-300 suffered a runway excursion after landing on runway 28L at Saint Petersburg-Pulkovo Airport, Russia. No injuries have been reported.

Weather at the time of the incident (1900Z) was reported as:
ULLI 021900Z 25009MPS 0450 R28L/1100N R28R/1500U +SHSN BLSN VV003 M00/M01 Q0989 R28L/591034 R28R/591599 NOSIG RMK QBB110 OBST OBSC
ULLI 021830Z 24009MPS 0300 R28L/0750N R28R/0900N +SHSN BLSN VV003 M01/M01 Q0989 R28L/591034 R28R/591599 NOSIG RMK QBB090 OBST OBSC
ULLI 021800Z 23005G10MPS 160V270 0350 0300W R28L/0300N R28R/1100N +SHSN BLSN VV003 M01/M01 Q0990 R28L/////// R28R/591599 NOSIG RMK QBB090 OBST OBSC 28L/23005G10MPS 28R/24010G14MPS

Sources:

http://www.goklerdeyiz.net/ozbekistan-ucagi-pistten-cikti/
https://www.kp.ru/online/news/3403731/
https://www.flightradar24.com/data/aircraft/uk-67008
http://szsut.sledcom.ru/news/item/1308473/


Images:


Photo: North-West Investigation Department for Transport of the Investigative Committee of the Russian Federation


Photo: North-West Investigation Department for Transport of the Investigative Committee of the Russian Federation

Revision history:

Date/timeContributorUpdates
03-Mar-2019 12:42 Goklerdeyiz.net Added
03-Mar-2019 12:43 harro Updated [Other fatalities, Destination airport, Source, Narrative]
03-Mar-2019 12:47 harro Updated [Time, Aircraft type, Location, Departure airport, Source, Damage, Narrative, Photo]
03-Mar-2019 12:48 harro Updated [Photo]
03-Mar-2019 12:50 harro Updated [Total occupants, Narrative]
06-Mar-2019 14:59 Bowzo Updated [Registration]

Corrections or additions? ... Edit this accident description